sensor_id;sensor_type;location;lat;lon;timestamp;pressure;altitude;pressure_sealevel;temperature;humidity
63111;BME280;49201;53.426;10.300;2023-04-21T00:00:53;102140.88;;;8.10;100.00
63111;BME280;49201;53.426;10.300;2023-04-21T00:03:19;102137.25;;;8.05;100.00
63111;BME280;49201;53.426;10.300;2023-04-21T00:05:46;102141.41;;;8.03;100.00
63111;BME280;49201;53.426;10.300;2023-04-21T00:08:13;102137.88;;;8.01;100.00
63111;BME280;49201;53.426;10.300;2023-04-21T00:10:38;102137.16;;;8.04;100.00
63111;BME280;49201;53.426;10.300;2023-04-21T00:13:04;102135.31;;;8.01;100.00
63111;BME280;49201;53.426;10.300;2023-04-21T00:15:29;102139.56;;;8.01;100.00
63111;BME280;49201;53.426;10.300;2023-04-21T00:17:55;102135.88;;;7.96;100.00
63111;BME280;49201;53.426;10.300;2023-04-21T00:20:22;102136.94;;;7.99;100.00
63111;BME280;49201;53.426;10.300;2023-04-21T00:22:48;102135.03;;;7.95;100.00
63111;BME280;49201;53.426;10.300;2023-04-21T00:25:15;102127.94;;;7.90;100.00
63111;BME280;49201;53.426;10.300;2023-04-21T00:27:40;102127.94;;;7.90;100.00
63111;BME280;49201;53.426;10.300;2023-04-21T00:30:06;102122.63;;;7.85;100.00
63111;BME280;49201;53.426;10.300;2023-04-21T00:32:32;102120.72;;;7.81;100.00
63111;BME280;49201;53.426;10.300;2023-04-21T00:34:57;102122.28;;;7.79;100.00
63111;BME280;49201;53.426;10.300;2023-04-21T00:37:22;102128.34;;;7.81;100.00
63111;BME280;49201;53.426;10.300;2023-04-21T00:39:48;102131.63;;;7.79;100.00
63111;BME280;49201;53.426;10.300;2023-04-21T00:42:15;102121.44;;;7.79;100.00
63111;BME280;49201;53.426;10.300;2023-04-21T00:44:41;102114.50;;;7.76;100.00
63111;BME280;49201;53.426;10.300;2023-04-21T00:47:06;102117.06;;;7.76;100.00
63111;BME280;49201;53.426;10.300;2023-04-21T00:49:32;102123.59;;;7.71;100.00
63111;BME280;49201;53.426;10.300;2023-04-21T00:51:57;102127.00;;;7.72;100.00
63111;BME280;49201;53.426;10.300;2023-04-21T00:54:23;102121.91;;;7.72;100.00
63111;BME280;49201;53.426;10.300;2023-04-21T00:56:50;102117.69;;;7.72;100.00
63111;BME280;49201;53.426;10.300;2023-04-21T00:59:16;102118.41;;;7.70;100.00
63111;BME280;49201;53.426;10.300;2023-04-21T01:01:41;102119.94;;;7.66;100.00
63111;BME280;49201;53.426;10.300;2023-04-21T01:04:07;102122.78;;;7.72;100.00
63111;BME280;49201;53.426;10.300;2023-04-21T01:06:35;102122.72;;;7.71;100.00
63111;BME280;49201;53.426;10.300;2023-04-21T01:09:02;102119.22;;;7.69;100.00
63111;BME280;49201;53.426;10.300;2023-04-21T01:11:30;102120.72;;;7.65;100.00
63111;BME280;49201;53.426;10.300;2023-04-21T01:13:56;102118.31;;;7.68;100.00
63111;BME280;49201;53.426;10.300;2023-04-21T01:16:22;102119.06;;;7.66;100.00
63111;BME280;49201;53.426;10.300;2023-04-21T01:18:51;102118.25;;;7.67;100.00
63111;BME280;49201;53.426;10.300;2023-04-21T01:21:18;102113.78;;;7.63;100.00
63111;BME280;49201;53.426;10.300;2023-04-21T01:23:44;102118.78;;;7.61;100.00
63111;BME280;49201;53.426;10.300;2023-04-21T01:26:10;102108.59;;;7.61;100.00
63111;BME280;49201;53.426;10.300;2023-04-21T01:28:36;102108.53;;;7.60;100.00
63111;BME280;49201;53.426;10.300;2023-04-21T01:31:03;102117.13;;;7.62;100.00
63111;BME280;49201;53.426;10.300;2023-04-21T01:33:29;102111.16;;;7.61;100.00
63111;BME280;49201;53.426;10.300;2023-04-21T01:35:57;102106.06;;;7.61;100.00
63111;BME280;49201;53.426;10.300;2023-04-21T01:38:23;102111.72;;;7.56;100.00
63111;BME280;49201;53.426;10.300;2023-04-21T01:40:51;102113.25;;;7.52;100.00
63111;BME280;49201;53.426;10.300;2023-04-21T01:43:18;102112.28;;;7.50;100.00
63111;BME280;49201;53.426;10.300;2023-04-21T01:45:45;102108.00;;;7.49;100.00
63111;BME280;49201;53.426;10.300;2023-04-21T01:48:11;102111.41;;;7.50;100.00
63111;BME280;49201;53.426;10.300;2023-04-21T01:50:38;102099.22;;;7.44;100.00
63111;BME280;49201;53.426;10.300;2023-04-21T01:53:03;102109.44;;;7.44;100.00
63111;BME280;49201;53.426;10.300;2023-04-21T01:55:29;102103.34;;;7.42;100.00
63111;BME280;49201;53.426;10.300;2023-04-21T01:57:54;102109.34;;;7.43;100.00
63111;BME280;49201;53.426;10.300;2023-04-21T02:00:22;102099.16;;;7.43;100.00
63111;BME280;49201;53.426;10.300;2023-04-21T02:02:48;102095.06;;;7.46;100.00
63111;BME280;49201;53.426;10.300;2023-04-21T02:05:13;102090.78;;;7.45;100.00
63111;BME280;49201;53.426;10.300;2023-04-21T02:07:40;102089.13;;;7.46;100.00
63111;BME280;49201;53.426;10.300;2023-04-21T02:10:05;102092.41;;;7.43;100.00
63111;BME280;49201;53.426;10.300;2023-04-21T02:12:31;102094.59;;;7.37;100.00
63111;BME280;49201;53.426;10.300;2023-04-21T02:14:56;102088.41;;;7.32;100.00
63111;BME280;49201;53.426;10.300;2023-04-21T02:17:22;102093.66;;;7.35;100.00
63111;BME280;49201;53.426;10.300;2023-04-21T02:19:48;102089.19;;;7.31;100.00
63111;BME280;49201;53.426;10.300;2023-04-21T02:22:13;102085.63;;;7.28;100.00
63111;BME280;49201;53.426;10.300;2023-04-21T02:24:39;102081.00;;;7.37;100.00
63111;BME280;49201;53.426;10.300;2023-04-21T02:27:05;102075.53;;;7.29;100.00
63111;BME280;49201;53.426;10.300;2023-04-21T02:29:30;102090.09;;;7.32;100.00
63111;BME280;49201;53.426;10.300;2023-04-21T02:31:58;102090.09;;;7.32;100.00
63111;BME280;49201;53.426;10.300;2023-04-21T02:34:23;102077.09;;;7.27;100.00
63111;BME280;49201;53.426;10.300;2023-04-21T02:36:48;102078.69;;;7.25;100.00
63111;BME280;49201;53.426;10.300;2023-04-21T02:39:14;102078.84;;;7.28;100.00
63111;BME280;49201;53.426;10.300;2023-04-21T02:41:40;102087.28;;;7.27;100.00
63111;BME280;49201;53.426;10.300;2023-04-21T02:44:05;102079.91;;;7.32;100.00
63111;BME280;49201;53.426;10.300;2023-04-21T02:46:31;102080.44;;;7.26;100.00
63111;BME280;49201;53.426;10.300;2023-04-21T02:48:57;102094.13;;;7.28;100.00
63111;BME280;49201;53.426;10.300;2023-04-21T02:51:23;102083.00;;;7.26;100.00
63111;BME280;49201;53.426;10.300;2023-04-21T02:53:48;102091.44;;;7.25;100.00
63111;BME280;49201;53.426;10.300;2023-04-21T02:56:14;102088.81;;;7.24;100.00
63111;BME280;49201;53.426;10.300;2023-04-21T02:58:40;102086.16;;;7.22;100.00
63111;BME280;49201;53.426;10.300;2023-04-21T03:01:06;102077.97;;;7.28;100.00
63111;BME280;49201;53.426;10.300;2023-04-21T03:03:33;102083.06;;;7.28;100.00
63111;BME280;49201;53.426;10.300;2023-04-21T03:06:00;102087.44;;;7.30;100.00
63111;BME280;49201;53.426;10.300;2023-04-21T03:08:26;102087.28;;;7.27;100.00
63111;BME280;49201;53.426;10.300;2023-04-21T03:10:52;102067.53;;;7.23;100.00
63111;BME280;49201;53.426;10.300;2023-04-21T03:13:20;102074.38;;;7.24;100.00
63111;BME280;49201;53.426;10.300;2023-04-21T03:15:49;102083.16;;;7.29;100.00
63111;BME280;49201;53.426;10.300;2023-04-21T03:18:15;102067.78;;;7.28;100.00
63111;BME280;49201;53.426;10.300;2023-04-21T03:20:40;102086.47;;;7.28;100.00
63111;BME280;49201;53.426;10.300;2023-04-21T03:23:07;102089.03;;;7.28;100.00
63111;BME280;49201;53.426;10.300;2023-04-21T03:25:32;102069.44;;;7.27;100.00
63111;BME280;49201;53.426;10.300;2023-04-21T03:27:58;102072.09;;;7.29;100.00
63111;BME280;49201;53.426;10.300;2023-04-21T03:30:24;102068.59;;;7.27;100.00
63111;BME280;49201;53.426;10.300;2023-04-21T03:32:52;102067.53;;;7.23;100.00
63111;BME280;49201;53.426;10.300;2023-04-21T03:35:20;102066.72;;;7.24;100.00
63111;BME280;49201;53.426;10.300;2023-04-21T03:37:45;102080.28;;;7.23;100.00
63111;BME280;49201;53.426;10.300;2023-04-21T03:40:11;102075.91;;;7.21;100.00
63111;BME280;49201;53.426;10.300;2023-04-21T03:42:36;102063.16;;;7.21;100.00
63111;BME280;49201;53.426;10.300;2023-04-21T03:45:07;102071.06;;;7.25;100.00
63111;BME280;49201;53.426;10.300;2023-04-21T03:47:33;102068.34;;;7.22;100.00
63111;BME280;49201;53.426;10.300;2023-04-21T03:49:59;102082.00;;;7.24;100.00
63111;BME280;49201;53.426;10.300;2023-04-21T03:52:24;102076.06;;;7.24;100.00
63111;BME280;49201;53.426;10.300;2023-04-21T03:54:50;102069.06;;;7.20;100.00
63111;BME280;49201;53.426;10.300;2023-04-21T03:57:16;102069.06;;;7.20;100.00
63111;BME280;49201;53.426;10.300;2023-04-21T03:59:41;102066.41;;;7.18;100.00
63111;BME280;49201;53.426;10.300;2023-04-21T04:02:07;102068.34;;;7.22;100.00
63111;BME280;49201;53.426;10.300;2023-04-21T04:04:33;102066.91;;;7.27;100.00
63111;BME280;49201;53.426;10.300;2023-04-21T04:06:59;102064.44;;;7.29;100.00
63111;BME280;49201;53.426;10.300;2023-04-21T04:09:24;102062.78;;;7.29;100.00
63111;BME280;49201;53.426;10.300;2023-04-21T04:11:50;102071.19;;;7.28;100.00
63111;BME280;49201;53.426;10.300;2023-04-21T04:14:15;102065.25;;;7.28;100.00
63111;BME280;49201;53.426;10.300;2023-04-21T04:16:41;102067.94;;;7.31;100.00
63111;BME280;49201;53.426;10.300;2023-04-21T04:19:07;102061.09;;;7.30;100.00
63111;BME280;49201;53.426;10.300;2023-04-21T04:21:32;102066.28;;;7.31;100.00
63111;BME280;49201;53.426;10.300;2023-04-21T04:23:58;102058.63;;;7.31;100.00
63111;BME280;49201;53.426;10.300;2023-04-21T04:26:24;102072.66;;;7.39;100.00
63111;BME280;49201;53.426;10.300;2023-04-21T04:28:53;102062.28;;;7.36;100.00
63111;BME280;49201;53.426;10.300;2023-04-21T04:31:23;102074.94;;;7.35;100.00
63111;BME280;49201;53.426;10.300;2023-04-21T04:33:50;102067.53;;;7.39;100.00
63111;BME280;49201;53.426;10.300;2023-04-21T04:36:15;102064.19;;;7.40;100.00
63111;BME280;49201;53.426;10.300;2023-04-21T04:38:41;102072.78;;;7.42;100.00
63111;BME280;49201;53.426;10.300;2023-04-21T04:41:06;102074.31;;;7.39;100.00
63111;BME280;49201;53.426;10.300;2023-04-21T04:43:33;102054.19;;;7.43;100.00
63111;BME280;49201;53.426;10.300;2023-04-21T04:46:04;102065.59;;;7.51;100.00
63111;BME280;49201;53.426;10.300;2023-04-21T04:48:30;102059.66;;;7.51;100.00
63111;BME280;49201;53.426;10.300;2023-04-21T04:50:55;102066.59;;;7.53;100.00
63111;BME280;49201;53.426;10.300;2023-04-21T04:53:21;102066.50;;;7.52;100.00
63111;BME280;49201;53.426;10.300;2023-04-21T04:55:46;102063.31;;;7.56;100.00
63111;BME280;49201;53.426;10.300;2023-04-21T04:58:12;102060.13;;;7.60;100.00
63111;BME280;49201;53.426;10.300;2023-04-21T05:00:37;102058.59;;;7.63;100.00
63111;BME280;49201;53.426;10.300;2023-04-21T05:03:03;102057.16;;;7.68;100.00
63111;BME280;49201;53.426;10.300;2023-04-21T05:05:29;102054.13;;;7.75;100.00
63111;BME280;49201;53.426;10.300;2023-04-21T05:07:55;102054.25;;;7.78;100.00
63111;BME280;49201;53.426;10.300;2023-04-21T05:10:21;102052.09;;;7.86;100.00
63111;BME280;49201;53.426;10.300;2023-04-21T05:12:47;102063.53;;;7.94;100.00
63111;BME280;49201;53.426;10.300;2023-04-21T05:15:13;102069.75;;;7.99;100.00
63111;BME280;49201;53.426;10.300;2023-04-21T05:17:38;102065.09;;;8.08;100.00
63111;BME280;49201;53.426;10.300;2023-04-21T05:20:05;102068.09;;;8.17;100.00
63111;BME280;49201;53.426;10.300;2023-04-21T05:22:30;102058.28;;;8.24;100.00
63111;BME280;49201;53.426;10.300;2023-04-21T05:24:56;102069.00;;;8.35;100.00
63111;BME280;49201;53.426;10.300;2023-04-21T05:27:21;102072.84;;;8.44;100.00
63111;BME280;49201;53.426;10.300;2023-04-21T05:29:47;102066.53;;;8.54;100.00
63111;BME280;49201;53.426;10.300;2023-04-21T05:32:12;102062.59;;;8.60;100.00
63111;BME280;49201;53.426;10.300;2023-04-21T05:34:38;102064.75;;;8.70;100.00
63111;BME280;49201;53.426;10.300;2023-04-21T05:37:03;102060.06;;;8.79;100.00
63111;BME280;49201;53.426;10.300;2023-04-21T05:39:29;102050.34;;;8.90;100.00
63111;BME280;49201;53.426;10.300;2023-04-21T05:41:55;102056.72;;;8.99;100.00
63111;BME280;49201;53.426;10.300;2023-04-21T05:44:20;102058.84;;;9.08;100.00
63111;BME280;49201;53.426;10.300;2023-04-21T05:46:45;102054.88;;;9.14;100.00
63111;BME280;49201;53.426;10.300;2023-04-21T05:49:11;102061.34;;;9.25;100.00
63111;BME280;49201;53.426;10.300;2023-04-21T05:51:36;102053.25;;;9.35;100.00
63111;BME280;49201;53.426;10.300;2023-04-21T05:54:02;102062.13;;;9.43;100.00
63111;BME280;49201;53.426;10.300;2023-04-21T05:56:27;102059.22;;;9.55;100.00
63111;BME280;49201;53.426;10.300;2023-04-21T05:58:53;102055.44;;;9.66;100.00
63111;BME280;49201;53.426;10.300;2023-04-21T06:01:18;102049.91;;;9.76;100.00
63111;BME280;49201;53.426;10.300;2023-04-21T06:03:44;102051.41;;;9.91;100.00
63111;BME280;49201;53.426;10.300;2023-04-21T06:06:09;102040.00;;;10.04;100.00
63111;BME280;49201;53.426;10.300;2023-04-21T06:08:36;102040.53;;;10.16;100.00
63111;BME280;49201;53.426;10.300;2023-04-21T06:11:01;102017.22;;;10.30;100.00
63111;BME280;49201;53.426;10.300;2023-04-21T06:13:27;102004.88;;;10.42;100.00
63111;BME280;49201;53.426;10.300;2023-04-21T06:15:53;102003.44;;;10.49;100.00
63111;BME280;49201;53.426;10.300;2023-04-21T06:18:19;102001.34;;;10.61;100.00
63111;BME280;49201;53.426;10.300;2023-04-21T06:20:52;101979.84;;;10.79;100.00
63111;BME280;49201;53.426;10.300;2023-04-21T06:23:17;101968.03;;;10.83;100.00
63111;BME280;49201;53.426;10.300;2023-04-21T06:25:43;101961.78;;;10.98;100.00
63111;BME280;49201;53.426;10.300;2023-04-21T06:28:09;101953.53;;;11.07;100.00
63111;BME280;49201;53.426;10.300;2023-04-21T06:30:34;101910.41;;;11.20;100.00
63111;BME280;49201;53.426;10.300;2023-04-21T06:33:00;101910.00;;;11.33;100.00
63111;BME280;49201;53.426;10.300;2023-04-21T06:35:25;101909.41;;;11.40;100.00
63111;BME280;49201;53.426;10.300;2023-04-21T06:37:51;101901.19;;;11.50;100.00
63111;BME280;49201;53.426;10.300;2023-04-21T06:40:16;101876.50;;;11.54;100.00
63111;BME280;49201;53.426;10.300;2023-04-21T06:42:42;101899.94;;;11.91;100.00
63111;BME280;49201;53.426;10.300;2023-04-21T06:45:08;101887.25;;;12.23;100.00
63111;BME280;49201;53.426;10.300;2023-04-21T06:47:33;101885.75;;;12.30;100.00
63111;BME280;49201;53.426;10.300;2023-04-21T06:49:59;101812.59;;;12.16;100.00
63111;BME280;49201;53.426;10.300;2023-04-21T06:52:24;101813.59;;;12.21;100.00
63111;BME280;49201;53.426;10.300;2023-04-21T06:54:50;101800.66;;;12.18;100.00
63111;BME280;49201;53.426;10.300;2023-04-21T06:57:15;101838.16;;;12.42;100.00
63111;BME280;49201;53.426;10.300;2023-04-21T06:59:42;101821.56;;;12.62;100.00
63111;BME280;49201;53.426;10.300;2023-04-21T07:02:07;101834.66;;;12.71;100.00
63111;BME280;49201;53.426;10.300;2023-04-21T07:04:33;101800.72;;;12.83;100.00
63111;BME280;49201;53.426;10.300;2023-04-21T07:06:58;101783.00;;;12.93;100.00
63111;BME280;49201;53.426;10.300;2023-04-21T07:09:24;101787.22;;;12.91;100.00
63111;BME280;49201;53.426;10.300;2023-04-21T07:11:49;101754.31;;;13.11;100.00
63111;BME280;49201;53.426;10.300;2023-04-21T07:14:14;101710.13;;;13.29;100.00
63111;BME280;49201;53.426;10.300;2023-04-21T07:16:40;101679.72;;;13.50;100.00
63111;BME280;49201;53.426;10.300;2023-04-21T07:19:06;101652.53;;;13.62;100.00
63111;BME280;49201;53.426;10.300;2023-04-21T07:21:31;101659.69;;;13.77;100.00
63111;BME280;49201;53.426;10.300;2023-04-21T07:24:00;101636.91;;;13.98;100.00
63111;BME280;49201;53.426;10.300;2023-04-21T07:26:26;101608.69;;;14.02;100.00
63111;BME280;49201;53.426;10.300;2023-04-21T07:28:51;101588.34;;;14.17;100.00
63111;BME280;49201;53.426;10.300;2023-04-21T07:31:17;101567.84;;;14.22;100.00
63111;BME280;49201;53.426;10.300;2023-04-21T07:33:43;101569.78;;;14.36;100.00
63111;BME280;49201;53.426;10.300;2023-04-21T07:36:08;101544.25;;;14.51;100.00
63111;BME280;49201;53.426;10.300;2023-04-21T07:38:33;101532.53;;;14.74;100.00
63111;BME280;49201;53.426;10.300;2023-04-21T07:40:59;101513.59;;;14.71;100.00
63111;BME280;49201;53.426;10.300;2023-04-21T07:43:25;101500.88;;;14.83;100.00
63111;BME280;49201;53.426;10.300;2023-04-21T07:45:51;101540.81;;;15.15;100.00
63111;BME280;49201;53.426;10.300;2023-04-21T07:48:17;101478.16;;;15.25;100.00
63111;BME280;49201;53.426;10.300;2023-04-21T07:50:43;101488.69;;;15.41;100.00
63111;BME280;49201;53.426;10.300;2023-04-21T07:53:08;101468.94;;;15.46;100.00
63111;BME280;49201;53.426;10.300;2023-04-21T07:55:34;101474.28;;;15.66;100.00
63111;BME280;49201;53.426;10.300;2023-04-21T07:58:03;101452.81;;;15.68;100.00
63111;BME280;49201;53.426;10.300;2023-04-21T08:00:28;101416.81;;;15.88;98.54
63111;BME280;49201;53.426;10.300;2023-04-21T08:02:54;101384.16;;;16.05;96.52
63111;BME280;49201;53.426;10.300;2023-04-21T08:05:19;101407.41;;;16.03;98.18
63111;BME280;49201;53.426;10.300;2023-04-21T08:07:45;101416.19;;;16.29;99.85
63111;BME280;49201;53.426;10.300;2023-04-21T08:10:10;101383.41;;;16.24;95.99
63111;BME280;49201;53.426;10.300;2023-04-21T08:12:36;101363.72;;;16.41;93.32
63111;BME280;49201;53.426;10.300;2023-04-21T08:15:01;101374.97;;;16.53;94.76
63111;BME280;49201;53.426;10.300;2023-04-21T08:17:30;101335.34;;;16.57;89.29
63111;BME280;49201;53.426;10.300;2023-04-21T08:19:55;101338.81;;;16.70;91.84
63111;BME280;49201;53.426;10.300;2023-04-21T08:22:21;101351.81;;;16.92;91.97
63111;BME280;49201;53.426;10.300;2023-04-21T08:24:47;101316.47;;;16.99;89.10
63111;BME280;49201;53.426;10.300;2023-04-21T08:27:12;101301.78;;;17.38;86.83
63111;BME280;49201;53.426;10.300;2023-04-21T08:29:38;101311.31;;;17.51;86.79
63111;BME280;49201;53.426;10.300;2023-04-21T08:32:03;101239.63;;;17.61;80.29
63111;BME280;49201;53.426;10.300;2023-04-21T08:34:29;101227.53;;;17.60;78.56
63111;BME280;49201;53.426;10.300;2023-04-21T08:36:55;101333.63;;;18.00;92.98
63111;BME280;49201;53.426;10.300;2023-04-21T08:39:20;101218.75;;;17.92;74.89
63111;BME280;49201;53.426;10.300;2023-04-21T08:41:46;101191.13;;;17.96;71.54
63111;BME280;49201;53.426;10.300;2023-04-21T08:44:12;101188.53;;;17.91;71.97
63111;BME280;49201;53.426;10.300;2023-04-21T08:46:38;101204.84;;;18.17;72.54
63111;BME280;49201;53.426;10.300;2023-04-21T08:49:04;101204.72;;;18.41;73.49
63111;BME280;49201;53.426;10.300;2023-04-21T08:51:29;101163.25;;;18.34;66.80
63111;BME280;49201;53.426;10.300;2023-04-21T08:53:56;101183.78;;;18.64;70.26
63111;BME280;49201;53.426;10.300;2023-04-21T08:56:25;101168.31;;;18.53;66.66
63111;BME280;49201;53.426;10.300;2023-04-21T08:58:51;101168.06;;;18.80;64.47
63111;BME280;49201;53.426;10.300;2023-04-21T09:01:16;101191.38;;;18.86;64.75
63111;BME280;49201;53.426;10.300;2023-04-21T09:03:42;101206.88;;;18.95;64.66
63111;BME280;49201;53.426;10.300;2023-04-21T09:06:08;101217.91;;;19.18;63.20
63111;BME280;49201;53.426;10.300;2023-04-21T09:08:36;101228.09;;;19.39;63.30
63111;BME280;49201;53.426;10.300;2023-04-21T09:11:03;101230.56;;;19.54;63.40
63111;BME280;49201;53.426;10.300;2023-04-21T09:13:35;101238.28;;;19.62;62.47
63111;BME280;49201;53.426;10.300;2023-04-21T09:16:03;101272.78;;;19.73;63.78
63111;BME280;49201;53.426;10.300;2023-04-21T09:18:30;101251.06;;;19.80;60.50
63111;BME280;49201;53.426;10.300;2023-04-21T09:23:43;101321.81;;;20.09;61.76
63111;BME280;49201;53.426;10.300;2023-04-21T09:26:10;101283.72;;;20.02;55.89
63111;BME280;49201;53.426;10.300;2023-04-21T09:28:36;101296.69;;;20.03;55.96
63111;BME280;49201;53.426;10.300;2023-04-21T09:31:12;101319.31;;;19.98;57.07
63111;BME280;49201;53.426;10.300;2023-04-21T09:33:37;101333.84;;;20.16;58.30
63111;BME280;49201;53.426;10.300;2023-04-21T09:36:04;101297.41;;;20.20;54.68
63111;BME280;49201;53.426;10.300;2023-04-21T09:38:29;101298.84;;;20.42;54.37
63111;BME280;49201;53.426;10.300;2023-04-21T09:40:57;101329.00;;;20.57;56.40
63111;BME280;49201;53.426;10.300;2023-04-21T09:43:23;101306.13;;;20.78;53.98
63111;BME280;49201;53.426;10.300;2023-04-21T09:45:49;101299.56;;;20.53;52.85
63111;BME280;49201;53.426;10.300;2023-04-21T09:48:16;101324.41;;;20.77;55.02
63111;BME280;49201;53.426;10.300;2023-04-21T09:50:42;101283.00;;;20.59;51.02
63111;BME280;49201;53.426;10.300;2023-04-21T09:53:12;101325.34;;;20.71;52.75
63111;BME280;49201;53.426;10.300;2023-04-21T09:55:40;101362.44;;;20.87;54.71
63111;BME280;49201;53.426;10.300;2023-04-21T09:58:06;101345.13;;;21.40;51.94
63111;BME280;49201;53.426;10.300;2023-04-21T10:00:34;101323.91;;;21.10;50.18
63111;BME280;49201;53.426;10.300;2023-04-21T10:03:04;101332.81;;;21.48;49.92
63111;BME280;49201;53.426;10.300;2023-04-21T10:05:35;101344.81;;;21.57;50.16
63111;BME280;49201;53.426;10.300;2023-04-21T10:08:00;101318.31;;;21.82;48.19
63111;BME280;49201;53.426;10.300;2023-04-21T10:10:28;101318.75;;;21.57;47.80
63111;BME280;49201;53.426;10.300;2023-04-21T10:12:56;101329.50;;;21.89;47.98
63111;BME280;49201;53.426;10.300;2023-04-21T10:18:11;101303.88;;;22.07;46.68
63111;BME280;49201;53.426;10.300;2023-04-21T10:23:41;101324.13;;;22.39;47.25
63111;BME280;49201;53.426;10.300;2023-04-21T10:28:44;101308.31;;;22.85;46.54
63111;BME280;49201;53.426;10.300;2023-04-21T10:31:21;101327.72;;;22.75;46.72
63111;BME280;49201;53.426;10.300;2023-04-21T10:39:35;101302.19;;;23.24;44.27
63111;BME280;49201;53.426;10.300;2023-04-21T10:42:22;101300.91;;;23.38;44.26
63111;BME280;49201;53.426;10.300;2023-04-21T10:47:27;101304.25;;;23.45;43.53
63111;BME280;49201;53.426;10.300;2023-04-21T10:49:55;101305.66;;;23.58;43.24
63111;BME280;49201;53.426;10.300;2023-04-21T10:52:30;101327.78;;;24.10;44.94
63111;BME280;49201;53.426;10.300;2023-04-21T10:57:21;101313.22;;;23.68;42.98
63111;BME280;49201;53.426;10.300;2023-04-21T10:59:47;101301.81;;;23.37;42.27
63111;BME280;49201;53.426;10.300;2023-04-21T11:02:14;101297.19;;;23.47;41.91
63111;BME280;49201;53.426;10.300;2023-04-21T11:04:40;101286.97;;;23.70;41.38
63111;BME280;49201;53.426;10.300;2023-04-21T11:09:38;101295.19;;;23.58;41.60
63111;BME280;49201;53.426;10.300;2023-04-21T11:12:13;101314.19;;;23.64;41.75
63111;BME280;49201;53.426;10.300;2023-04-21T11:14:40;101316.31;;;23.82;42.23
63111;BME280;49201;53.426;10.300;2023-04-21T11:17:19;101318.47;;;23.67;42.73
63111;BME280;49201;53.426;10.300;2023-04-21T11:19:50;101298.88;;;23.81;42.13
63111;BME280;49201;53.426;10.300;2023-04-21T11:22:16;101301.13;;;23.64;41.53
63111;BME280;49201;53.426;10.300;2023-04-21T11:24:46;101314.47;;;23.86;42.22
63111;BME280;49201;53.426;10.300;2023-04-21T11:27:13;101284.03;;;23.82;40.83
63111;BME280;49201;53.426;10.300;2023-04-21T11:29:41;101271.53;;;23.93;39.76
63111;BME280;49201;53.426;10.300;2023-04-21T11:32:07;101283.38;;;23.74;40.22
63111;BME280;49201;53.426;10.300;2023-04-21T11:34:36;101266.59;;;23.52;38.73
63111;BME280;49201;53.426;10.300;2023-04-21T11:37:02;101299.22;;;23.37;38.49
63111;BME280;49201;53.426;10.300;2023-04-21T11:39:28;101370.56;;;23.42;39.38
63111;BME280;49201;53.426;10.300;2023-04-21T11:41:53;101406.13;;;23.49;40.36
63111;BME280;49201;53.426;10.300;2023-04-21T11:44:48;101385.59;;;23.68;38.78
63111;BME280;49201;53.426;10.300;2023-04-21T11:47:19;101389.84;;;23.72;38.44
63111;BME280;49201;53.426;10.300;2023-04-21T11:49:49;101392.06;;;23.53;38.34
63111;BME280;49201;53.426;10.300;2023-04-21T11:52:34;101452.31;;;24.19;40.47
63111;BME280;49201;53.426;10.300;2023-04-21T11:55:03;101404.84;;;24.00;39.11
63111;BME280;49201;53.426;10.300;2023-04-21T11:57:30;101374.78;;;23.48;38.08
63111;BME280;49201;53.426;10.300;2023-04-21T12:00:07;101391.09;;;23.57;38.19
63111;BME280;49201;53.426;10.300;2023-04-21T12:02:33;101396.94;;;23.32;38.62
63111;BME280;49201;53.426;10.300;2023-04-21T12:05:11;101364.13;;;23.55;37.96
63111;BME280;49201;53.426;10.300;2023-04-21T12:07:41;101383.06;;;23.98;39.01
63111;BME280;49201;53.426;10.300;2023-04-21T12:10:09;101354.69;;;23.48;37.89
63111;BME280;49201;53.426;10.300;2023-04-21T12:12:39;101401.81;;;23.80;39.26
63111;BME280;49201;53.426;10.300;2023-04-21T12:15:07;101354.19;;;23.34;37.73
63111;BME280;49201;53.426;10.300;2023-04-21T12:17:43;101363.50;;;23.44;38.05
63111;BME280;49201;53.426;10.300;2023-04-21T12:20:09;101369.59;;;23.46;38.94
63111;BME280;49201;53.426;10.300;2023-04-21T12:22:34;101364.91;;;23.59;37.85
63111;BME280;49201;53.426;10.300;2023-04-21T12:25:00;101369.78;;;23.72;38.54
63111;BME280;49201;53.426;10.300;2023-04-21T12:27:26;101357.47;;;24.09;37.73
63111;BME280;49201;53.426;10.300;2023-04-21T12:29:51;101338.53;;;23.66;37.36
63111;BME280;49201;53.426;10.300;2023-04-21T12:32:17;101345.06;;;23.84;37.20
63111;BME280;49201;53.426;10.300;2023-04-21T12:34:42;101365.84;;;23.56;38.30
63111;BME280;49201;53.426;10.300;2023-04-21T12:37:08;101361.19;;;24.01;37.90
63111;BME280;49201;53.426;10.300;2023-04-21T12:39:33;101378.75;;;23.62;39.42
63111;BME280;49201;53.426;10.300;2023-04-21T12:41:59;101353.97;;;24.09;38.06
63111;BME280;49201;53.426;10.300;2023-04-21T12:44:25;101324.28;;;23.78;36.77
63111;BME280;49201;53.426;10.300;2023-04-21T12:46:51;101317.38;;;23.75;35.65
63111;BME280;49201;53.426;10.300;2023-04-21T12:49:18;101320.81;;;23.45;36.40
63111;BME280;49201;53.426;10.300;2023-04-21T12:51:43;101330.28;;;23.49;36.08
63111;BME280;49201;53.426;10.300;2023-04-21T12:54:12;101341.53;;;23.85;36.45
63111;BME280;49201;53.426;10.300;2023-04-21T12:56:38;101296.44;;;23.75;34.20
63111;BME280;49201;53.426;10.300;2023-04-21T12:59:08;101333.69;;;23.85;35.26